sensor_id;sensor_type;location;lat;lon;timestamp;temperature;humidity
52731;DHT22;38624;53.242;6.974;2023-05-24T00:01:16;20.30;99.80
52731;DHT22;38624;53.242;6.974;2023-05-24T00:03:50;20.30;99.80
52731;DHT22;38624;53.242;6.974;2023-05-24T00:06:17;20.30;99.90
52731;DHT22;38624;53.242;6.974;2023-05-24T00:08:43;20.30;99.90
52731;DHT22;38624;53.242;6.974;2023-05-24T00:11:09;20.20;99.90
52731;DHT22;38624;53.242;6.974;2023-05-24T00:13:35;20.20;99.80
52731;DHT22;38624;53.242;6.974;2023-05-24T00:16:01;20.20;99.90
52731;DHT22;38624;53.242;6.974;2023-05-24T00:18:27;20.20;99.90
52731;DHT22;38624;53.242;6.974;2023-05-24T00:20:56;20.20;99.80
52731;DHT22;38624;53.242;6.974;2023-05-24T00:23:23;20.20;99.80
52731;DHT22;38624;53.242;6.974;2023-05-24T00:25:50;20.20;99.90
52731;DHT22;38624;53.242;6.974;2023-05-24T00:28:16;20.20;99.90
52731;DHT22;38624;53.242;6.974;2023-05-24T00:30:42;20.20;99.90
52731;DHT22;38624;53.242;6.974;2023-05-24T00:33:08;20.20;99.90
52731;DHT22;38624;53.242;6.974;2023-05-24T00:35:33;20.20;99.90
52731;DHT22;38624;53.242;6.974;2023-05-24T00:37:59;20.10;99.90
52731;DHT22;38624;53.242;6.974;2023-05-24T00:40:25;20.10;99.90
52731;DHT22;38624;53.242;6.974;2023-05-24T00:42:51;20.10;99.90
52731;DHT22;38624;53.242;6.974;2023-05-24T00:45:16;20.10;99.90
52731;DHT22;38624;53.242;6.974;2023-05-24T00:47:42;20.10;99.90
52731;DHT22;38624;53.242;6.974;2023-05-24T00:50:09;20.10;99.90
52731;DHT22;38624;53.242;6.974;2023-05-24T00:52:38;20.10;99.90
52731;DHT22;38624;53.242;6.974;2023-05-24T00:55:06;20.10;99.90
52731;DHT22;38624;53.242;6.974;2023-05-24T00:57:32;20.00;99.90
52731;DHT22;38624;53.242;6.974;2023-05-24T00:59:58;20.00;99.90
52731;DHT22;38624;53.242;6.974;2023-05-24T01:02:24;20.00;99.90
52731;DHT22;38624;53.242;6.974;2023-05-24T01:04:50;20.00;99.90
52731;DHT22;38624;53.242;6.974;2023-05-24T01:07:49;20.00;99.90
52731;DHT22;38624;53.242;6.974;2023-05-24T01:10:47;20.00;99.90
52731;DHT22;38624;53.242;6.974;2023-05-24T01:16:17;20.00;99.90
52731;DHT22;38624;53.242;6.974;2023-05-24T01:18:55;20.00;99.90
52731;DHT22;38624;53.242;6.974;2023-05-24T01:21:34;20.00;99.90
52731;DHT22;38624;53.242;6.974;2023-05-24T01:27:07;19.90;99.90
52731;DHT22;38624;53.242;6.974;2023-05-24T01:29:34;19.90;99.90
52731;DHT22;38624;53.242;6.974;2023-05-24T01:32:01;19.90;99.90
52731;DHT22;38624;53.242;6.974;2023-05-24T01:34:27;19.90;99.90
52731;DHT22;38624;53.242;6.974;2023-05-24T01:36:52;19.90;99.90
52731;DHT22;38624;53.242;6.974;2023-05-24T01:39:19;19.90;99.90
52731;DHT22;38624;53.242;6.974;2023-05-24T01:44:43;19.90;99.90
52731;DHT22;38624;53.242;6.974;2023-05-24T01:50:06;19.80;99.90
52731;DHT22;38624;53.242;6.974;2023-05-24T01:52:34;19.80;99.90
52731;DHT22;38624;53.242;6.974;2023-05-24T01:55:00;19.80;99.90
52731;DHT22;38624;53.242;6.974;2023-05-24T01:57:27;19.80;99.90
52731;DHT22;38624;53.242;6.974;2023-05-24T01:59:53;19.80;99.90
52731;DHT22;38624;53.242;6.974;2023-05-24T02:02:19;19.80;99.90
52731;DHT22;38624;53.242;6.974;2023-05-24T02:04:45;19.70;99.90
52731;DHT22;38624;53.242;6.974;2023-05-24T02:07:11;19.70;99.90
52731;DHT22;38624;53.242;6.974;2023-05-24T02:09:37;19.70;99.90
52731;DHT22;38624;53.242;6.974;2023-05-24T02:12:04;19.70;99.90
52731;DHT22;38624;53.242;6.974;2023-05-24T02:14:30;19.70;99.90
52731;DHT22;38624;53.242;6.974;2023-05-24T02:16:56;19.70;99.90
52731;DHT22;38624;53.242;6.974;2023-05-24T02:19:23;19.70;99.90
52731;DHT22;38624;53.242;6.974;2023-05-24T02:21:50;19.70;99.90
52731;DHT22;38624;53.242;6.974;2023-05-24T02:24:16;19.70;99.90
52731;DHT22;38624;53.242;6.974;2023-05-24T02:26:43;19.60;99.90
52731;DHT22;38624;53.242;6.974;2023-05-24T02:29:09;19.60;99.90
52731;DHT22;38624;53.242;6.974;2023-05-24T02:31:35;19.60;99.90
52731;DHT22;38624;53.242;6.974;2023-05-24T02:34:01;19.60;99.90
52731;DHT22;38624;53.242;6.974;2023-05-24T02:36:26;19.60;99.90
52731;DHT22;38624;53.242;6.974;2023-05-24T02:38:52;19.60;99.90
52731;DHT22;38624;53.242;6.974;2023-05-24T02:41:18;19.60;99.90
52731;DHT22;38624;53.242;6.974;2023-05-24T02:43:45;19.60;99.90
52731;DHT22;38624;53.242;6.974;2023-05-24T02:46:11;19.60;99.90
52731;DHT22;38624;53.242;6.974;2023-05-24T02:48:37;19.60;99.90
52731;DHT22;38624;53.242;6.974;2023-05-24T02:51:03;19.60;99.90
52731;DHT22;38624;53.242;6.974;2023-05-24T02:53:29;19.50;99.90
52731;DHT22;38624;53.242;6.974;2023-05-24T02:55:56;19.50;99.90
52731;DHT22;38624;53.242;6.974;2023-05-24T02:58:22;19.50;99.90
52731;DHT22;38624;53.242;6.974;2023-05-24T03:00:48;19.70;99.90
52731;DHT22;38624;53.242;6.974;2023-05-24T03:03:14;19.50;99.90
52731;DHT22;38624;53.242;6.974;2023-05-24T03:05:40;19.50;99.90
52731;DHT22;38624;53.242;6.974;2023-05-24T03:08:05;19.50;99.90
52731;DHT22;38624;53.242;6.974;2023-05-24T03:10:31;19.40;99.90
52731;DHT22;38624;53.242;6.974;2023-05-24T03:12:57;19.40;99.90
52731;DHT22;38624;53.242;6.974;2023-05-24T03:15:23;19.50;99.90
52731;DHT22;38624;53.242;6.974;2023-05-24T03:17:48;19.40;99.90
52731;DHT22;38624;53.242;6.974;2023-05-24T03:20:14;19.40;99.90
52731;DHT22;38624;53.242;6.974;2023-05-24T03:22:40;19.40;99.90
52731;DHT22;38624;53.242;6.974;2023-05-24T03:25:06;19.40;99.90
52731;DHT22;38624;53.242;6.974;2023-05-24T03:27:33;19.40;99.90
52731;DHT22;38624;53.242;6.974;2023-05-24T03:29:59;19.40;99.90
52731;DHT22;38624;53.242;6.974;2023-05-24T03:32:25;19.40;99.90
52731;DHT22;38624;53.242;6.974;2023-05-24T03:34:50;19.40;99.90
52731;DHT22;38624;53.242;6.974;2023-05-24T03:37:16;19.40;99.90
52731;DHT22;38624;53.242;6.974;2023-05-24T03:39:42;19.30;99.90
52731;DHT22;38624;53.242;6.974;2023-05-24T03:42:07;19.30;99.90
52731;DHT22;38624;53.242;6.974;2023-05-24T03:44:33;19.30;99.90
52731;DHT22;38624;53.242;6.974;2023-05-24T03:46:59;19.30;99.90
52731;DHT22;38624;53.242;6.974;2023-05-24T03:49:25;19.30;99.90
52731;DHT22;38624;53.242;6.974;2023-05-24T03:51:50;19.30;99.90
52731;DHT22;38624;53.242;6.974;2023-05-24T03:54:16;19.30;99.90
52731;DHT22;38624;53.242;6.974;2023-05-24T03:56:43;19.30;99.90
52731;DHT22;38624;53.242;6.974;2023-05-24T03:59:08;19.30;99.90
52731;DHT22;38624;53.242;6.974;2023-05-24T04:01:34;19.30;99.90
52731;DHT22;38624;53.242;6.974;2023-05-24T04:04:04;19.20;99.80
52731;DHT22;38624;53.242;6.974;2023-05-24T04:06:29;19.20;99.80
52731;DHT22;38624;53.242;6.974;2023-05-24T04:08:56;19.20;99.80
52731;DHT22;38624;53.242;6.974;2023-05-24T04:11:22;19.20;99.80
52731;DHT22;38624;53.242;6.974;2023-05-24T04:13:49;19.20;99.90
52731;DHT22;38624;53.242;6.974;2023-05-24T04:16:16;19.20;99.90
52731;DHT22;38624;53.242;6.974;2023-05-24T04:18:41;19.20;99.90
52731;DHT22;38624;53.242;6.974;2023-05-24T04:21:07;19.20;99.90
52731;DHT22;38624;53.242;6.974;2023-05-24T04:23:33;19.20;99.90
52731;DHT22;38624;53.242;6.974;2023-05-24T04:25:58;19.20;99.90
52731;DHT22;38624;53.242;6.974;2023-05-24T04:28:24;19.20;99.90
52731;DHT22;38624;53.242;6.974;2023-05-24T04:30:50;19.20;99.90
52731;DHT22;38624;53.242;6.974;2023-05-24T04:33:16;19.20;99.90
52731;DHT22;38624;53.242;6.974;2023-05-24T04:35:42;19.20;99.90
52731;DHT22;38624;53.242;6.974;2023-05-24T04:38:08;19.20;99.90
52731;DHT22;38624;53.242;6.974;2023-05-24T04:40:37;19.20;99.90
52731;DHT22;38624;53.242;6.974;2023-05-24T04:43:03;19.20;99.80
52731;DHT22;38624;53.242;6.974;2023-05-24T04:45:28;19.10;99.80
52731;DHT22;38624;53.242;6.974;2023-05-24T04:47:55;19.10;99.80
52731;DHT22;38624;53.242;6.974;2023-05-24T04:50:21;19.10;99.80
52731;DHT22;38624;53.242;6.974;2023-05-24T04:52:47;19.10;99.80
52731;DHT22;38624;53.242;6.974;2023-05-24T04:55:12;19.10;99.80
52731;DHT22;38624;53.242;6.974;2023-05-24T04:57:38;19.10;99.80
52731;DHT22;38624;53.242;6.974;2023-05-24T05:00:04;19.10;99.80
52731;DHT22;38624;53.242;6.974;2023-05-24T05:02:31;19.10;99.80
52731;DHT22;38624;53.242;6.974;2023-05-24T05:04:57;19.10;99.80
52731;DHT22;38624;53.242;6.974;2023-05-24T05:07:23;19.10;99.80
52731;DHT22;38624;53.242;6.974;2023-05-24T05:09:48;19.10;99.80
52731;DHT22;38624;53.242;6.974;2023-05-24T05:12:14;19.10;99.80
52731;DHT22;38624;53.242;6.974;2023-05-24T05:14:40;19.10;99.70
52731;DHT22;38624;53.242;6.974;2023-05-24T05:17:06;19.10;99.80
52731;DHT22;38624;53.242;6.974;2023-05-24T05:19:32;19.10;99.80
52731;DHT22;38624;53.242;6.974;2023-05-24T05:21:57;19.10;99.70
52731;DHT22;38624;53.242;6.974;2023-05-24T05:24:23;19.10;99.90
52731;DHT22;38624;53.242;6.974;2023-05-24T05:26:49;19.10;99.70
52731;DHT22;38624;53.242;6.974;2023-05-24T05:29:15;19.00;99.60
52731;DHT22;38624;53.242;6.974;2023-05-24T05:31:40;19.00;99.60
52731;DHT22;38624;53.242;6.974;2023-05-24T05:34:06;19.00;99.70
52731;DHT22;38624;53.242;6.974;2023-05-24T05:36:36;19.00;99.70
52731;DHT22;38624;53.242;6.974;2023-05-24T05:39:06;19.00;99.60
52731;DHT22;38624;53.242;6.974;2023-05-24T05:41:38;19.00;99.60
52731;DHT22;38624;53.242;6.974;2023-05-24T05:44:05;19.00;99.60
52731;DHT22;38624;53.242;6.974;2023-05-24T05:46:31;19.00;99.60
52731;DHT22;38624;53.242;6.974;2023-05-24T05:48:56;19.00;99.60
52731;DHT22;38624;53.242;6.974;2023-05-24T05:51:22;19.00;99.60
52731;DHT22;38624;53.242;6.974;2023-05-24T05:53:48;19.00;99.60
52731;DHT22;38624;53.242;6.974;2023-05-24T05:56:13;19.00;99.70
52731;DHT22;38624;53.242;6.974;2023-05-24T05:58:39;19.00;99.60
52731;DHT22;38624;53.242;6.974;2023-05-24T06:01:05;19.00;99.60
52731;DHT22;38624;53.242;6.974;2023-05-24T06:03:30;19.00;99.60
52731;DHT22;38624;53.242;6.974;2023-05-24T06:05:56;18.60;99.50
52731;DHT22;38624;53.242;6.974;2023-05-24T06:08:21;19.00;99.60
52731;DHT22;38624;53.242;6.974;2023-05-24T06:10:47;19.00;99.60
52731;DHT22;38624;53.242;6.974;2023-05-24T06:13:13;19.00;99.60
52731;DHT22;38624;53.242;6.974;2023-05-24T06:15:38;19.00;99.60
52731;DHT22;38624;53.242;6.974;2023-05-24T06:18:05;19.00;99.60
52731;DHT22;38624;53.242;6.974;2023-05-24T06:20:30;19.00;99.60
52731;DHT22;38624;53.242;6.974;2023-05-24T06:22:56;19.00;99.60
52731;DHT22;38624;53.242;6.974;2023-05-24T06:25:22;19.00;99.60
52731;DHT22;38624;53.242;6.974;2023-05-24T06:27:49;19.00;99.50
52731;DHT22;38624;53.242;6.974;2023-05-24T06:30:16;19.00;99.50
52731;DHT22;38624;53.242;6.974;2023-05-24T06:32:42;19.00;99.50
52731;DHT22;38624;53.242;6.974;2023-05-24T06:35:08;19.00;99.50
52731;DHT22;38624;53.242;6.974;2023-05-24T06:37:34;19.00;99.50
52731;DHT22;38624;53.242;6.974;2023-05-24T06:40:00;19.00;99.40
52731;DHT22;38624;53.242;6.974;2023-05-24T06:42:26;19.00;99.40
52731;DHT22;38624;53.242;6.974;2023-05-24T06:44:51;19.00;99.40
52731;DHT22;38624;53.242;6.974;2023-05-24T06:47:17;19.00;99.40
52731;DHT22;38624;53.242;6.974;2023-05-24T06:49:43;19.00;99.40
52731;DHT22;38624;53.242;6.974;2023-05-24T06:52:08;19.00;99.40
52731;DHT22;38624;53.242;6.974;2023-05-24T06:54:34;19.00;99.40
52731;DHT22;38624;53.242;6.974;2023-05-24T06:57:00;19.00;99.30
52731;DHT22;38624;53.242;6.974;2023-05-24T06:59:26;19.00;99.30
52731;DHT22;38624;53.242;6.974;2023-05-24T07:01:52;19.00;99.30
52731;DHT22;38624;53.242;6.974;2023-05-24T07:04:25;19.00;99.30
52731;DHT22;38624;53.242;6.974;2023-05-24T07:06:51;19.00;99.30
52731;DHT22;38624;53.242;6.974;2023-05-24T07:09:20;19.00;99.20
52731;DHT22;38624;53.242;6.974;2023-05-24T07:11:46;19.00;99.30
52731;DHT22;38624;53.242;6.974;2023-05-24T07:14:12;19.00;99.20
52731;DHT22;38624;53.242;6.974;2023-05-24T07:16:37;19.00;99.30
52731;DHT22;38624;53.242;6.974;2023-05-24T07:19:03;19.00;99.20
52731;DHT22;38624;53.242;6.974;2023-05-24T07:21:28;19.00;99.20
52731;DHT22;38624;53.242;6.974;2023-05-24T07:23:54;19.00;99.20
52731;DHT22;38624;53.242;6.974;2023-05-24T07:26:20;19.00;99.20
52731;DHT22;38624;53.242;6.974;2023-05-24T07:28:46;19.00;99.20
52731;DHT22;38624;53.242;6.974;2023-05-24T07:31:12;19.00;99.20
52731;DHT22;38624;53.242;6.974;2023-05-24T07:33:38;19.00;99.20
52731;DHT22;38624;53.242;6.974;2023-05-24T07:36:04;19.00;99.20
52731;DHT22;38624;53.242;6.974;2023-05-24T07:38:31;19.10;99.20
52731;DHT22;38624;53.242;6.974;2023-05-24T07:41:00;19.10;99.20
52731;DHT22;38624;53.242;6.974;2023-05-24T07:43:26;19.10;99.10
52731;DHT22;38624;53.242;6.974;2023-05-24T07:45:52;19.10;99.10
52731;DHT22;38624;53.242;6.974;2023-05-24T07:48:22;19.10;99.10
52731;DHT22;38624;53.242;6.974;2023-05-24T07:50:49;19.10;99.20
52731;DHT22;38624;53.242;6.974;2023-05-24T07:53:15;19.10;99.20
52731;DHT22;38624;53.242;6.974;2023-05-24T07:55:41;19.00;99.20
52731;DHT22;38624;53.242;6.974;2023-05-24T07:58:09;19.00;99.20
52731;DHT22;38624;53.242;6.974;2023-05-24T08:00:35;19.00;99.10
52731;DHT22;38624;53.242;6.974;2023-05-24T08:03:01;19.00;99.20
52731;DHT22;38624;53.242;6.974;2023-05-24T08:05:27;19.00;99.10
52731;DHT22;38624;53.242;6.974;2023-05-24T08:07:53;19.00;99.10
52731;DHT22;38624;53.242;6.974;2023-05-24T08:10:19;19.00;99.10
52731;DHT22;38624;53.242;6.974;2023-05-24T08:12:45;19.00;99.10
52731;DHT22;38624;53.242;6.974;2023-05-24T08:15:11;19.10;99.10
52731;DHT22;38624;53.242;6.974;2023-05-24T08:17:39;19.00;99.00
52731;DHT22;38624;53.242;6.974;2023-05-24T08:20:06;19.00;99.00
52731;DHT22;38624;53.242;6.974;2023-05-24T08:22:38;19.10;99.10
52731;DHT22;38624;53.242;6.974;2023-05-24T08:25:04;19.10;99.00
52731;DHT22;38624;53.242;6.974;2023-05-24T08:27:30;19.10;99.10
52731;DHT22;38624;53.242;6.974;2023-05-24T08:29:57;19.10;99.00
52731;DHT22;38624;53.242;6.974;2023-05-24T08:32:23;19.10;99.00
52731;DHT22;38624;53.242;6.974;2023-05-24T08:34:49;19.10;99.00
52731;DHT22;38624;53.242;6.974;2023-05-24T08:37:15;19.10;99.00
52731;DHT22;38624;53.242;6.974;2023-05-24T08:39:45;19.10;99.00
52731;DHT22;38624;53.242;6.974;2023-05-24T08:42:11;19.20;99.00
52731;DHT22;38624;53.242;6.974;2023-05-24T08:45:03;19.20;99.00
52731;DHT22;38624;53.242;6.974;2023-05-24T08:47:33;19.20;98.90
52731;DHT22;38624;53.242;6.974;2023-05-24T08:50:01;19.20;98.90
52731;DHT22;38624;53.242;6.974;2023-05-24T08:52:27;19.20;98.80
52731;DHT22;38624;53.242;6.974;2023-05-24T08:54:54;19.20;98.80
52731;DHT22;38624;53.242;6.974;2023-05-24T08:57:20;19.10;98.80
52731;DHT22;38624;53.242;6.974;2023-05-24T08:59:46;19.60;98.90
52731;DHT22;38624;53.242;6.974;2023-05-24T09:02:13;19.10;98.70
52731;DHT22;38624;53.242;6.974;2023-05-24T09:04:40;19.10;98.70
52731;DHT22;38624;53.242;6.974;2023-05-24T09:07:09;19.20;98.70
52731;DHT22;38624;53.242;6.974;2023-05-24T09:09:37;19.10;98.70
52731;DHT22;38624;53.242;6.974;2023-05-24T09:12:10;19.10;98.60
52731;DHT22;38624;53.242;6.974;2023-05-24T09:14:44;19.00;98.60
52731;DHT22;38624;53.242;6.974;2023-05-24T09:17:11;19.10;98.60
52731;DHT22;38624;53.242;6.974;2023-05-24T09:19:46;19.00;98.60
52731;DHT22;38624;53.242;6.974;2023-05-24T09:22:12;19.00;98.60
52731;DHT22;38624;53.242;6.974;2023-05-24T09:24:42;19.00;98.80
52731;DHT22;38624;53.242;6.974;2023-05-24T09:27:14;19.00;98.40
52731;DHT22;38624;53.242;6.974;2023-05-24T09:29:41;18.90;98.50
52731;DHT22;38624;53.242;6.974;2023-05-24T09:32:08;19.00;98.50
52731;DHT22;38624;53.242;6.974;2023-05-24T09:34:40;19.00;98.50
52731;DHT22;38624;53.242;6.974;2023-05-24T09:37:20;19.00;98.40
52731;DHT22;38624;53.242;6.974;2023-05-24T09:39:47;19.00;98.40
52731;DHT22;38624;53.242;6.974;2023-05-24T09:42:18;19.00;98.40
52731;DHT22;38624;53.242;6.974;2023-05-24T09:44:47;19.00;98.40
52731;DHT22;38624;53.242;6.974;2023-05-24T09:47:14;19.00;98.40
52731;DHT22;38624;53.242;6.974;2023-05-24T09:49:40;19.00;98.40
52731;DHT22;38624;53.242;6.974;2023-05-24T09:52:06;19.00;98.40
52731;DHT22;38624;53.242;6.974;2023-05-24T09:54:32;19.00;98.30
52731;DHT22;38624;53.242;6.974;2023-05-24T09:57:01;19.00;98.30
52731;DHT22;38624;53.242;6.974;2023-05-24T09:59:32;19.10;98.30
52731;DHT22;38624;53.242;6.974;2023-05-24T10:02:08;19.10;98.30
52731;DHT22;38624;53.242;6.974;2023-05-24T10:04:35;19.10;98.20
52731;DHT22;38624;53.242;6.974;2023-05-24T10:07:01;19.00;98.20
52731;DHT22;38624;53.242;6.974;2023-05-24T10:09:28;19.10;98.30
52731;DHT22;38624;53.242;6.974;2023-05-24T10:12:04;19.00;98.00
52731;DHT22;38624;53.242;6.974;2023-05-24T10:14:37;18.80;98.20
52731;DHT22;38624;53.242;6.974;2023-05-24T10:17:04;19.00;98.20
52731;DHT22;38624;53.242;6.974;2023-05-24T10:19:34;19.00;98.20
52731;DHT22;38624;53.242;6.974;2023-05-24T10:22:06;19.00;98.10
52731;DHT22;38624;53.242;6.974;2023-05-24T10:24:38;19.00;98.10
52731;DHT22;38624;53.242;6.974;2023-05-24T10:27:08;19.00;98.10
52731;DHT22;38624;53.242;6.974;2023-05-24T10:29:58;19.00;98.10
52731;DHT22;38624;53.242;6.974;2023-05-24T10:32:25;19.00;98.10
52731;DHT22;38624;53.242;6.974;2023-05-24T10:34:57;19.00;98.00
52731;DHT22;38624;53.242;6.974;2023-05-24T10:37:24;19.10;98.10
52731;DHT22;38624;53.242;6.974;2023-05-24T10:39:51;19.10;98.00
52731;DHT22;38624;53.242;6.974;2023-05-24T10:42:17;19.10;98.00
52731;DHT22;38624;53.242;6.974;2023-05-24T10:44:44;19.20;98.00
52731;DHT22;38624;53.242;6.974;2023-05-24T10:47:14;19.20;97.90
52731;DHT22;38624;53.242;6.974;2023-05-24T10:49:51;19.20;97.90
52731;DHT22;38624;53.242;6.974;2023-05-24T10:52:17;19.30;97.80
52731;DHT22;38624;53.242;6.974;2023-05-24T10:57:28;19.20;98.00
52731;DHT22;38624;53.242;6.974;2023-05-24T10:59:56;19.20;97.80
52731;DHT22;38624;53.242;6.974;2023-05-24T11:02:26;19.20;97.80
52731;DHT22;38624;53.242;6.974;2023-05-24T11:04:52;19.20;97.80
52731;DHT22;38624;53.242;6.974;2023-05-24T11:07:20;19.20;97.80
52731;DHT22;38624;53.242;6.974;2023-05-24T11:09:47;19.20;97.80
52731;DHT22;38624;53.242;6.974;2023-05-24T11:12:21;19.20;97.80
52731;DHT22;38624;53.242;6.974;2023-05-24T11:14:51;19.30;97.80
52731;DHT22;38624;53.242;6.974;2023-05-24T11:17:21;19.20;97.80
52731;DHT22;38624;53.242;6.974;2023-05-24T11:19:52;19.30;97.80
52731;DHT22;38624;53.242;6.974;2023-05-24T11:22:23;19.30;97.80
52731;DHT22;38624;53.242;6.974;2023-05-24T11:24:51;19.30;97.70
52731;DHT22;38624;53.242;6.974;2023-05-24T11:27:17;19.40;97.70
52731;DHT22;38624;53.242;6.974;2023-05-24T11:29:45;19.40;97.70
52731;DHT22;38624;53.242;6.974;2023-05-24T11:32:20;19.40;97.70
52731;DHT22;38624;53.242;6.974;2023-05-24T11:34:48;19.40;97.60
52731;DHT22;38624;53.242;6.974;2023-05-24T11:37:15;19.50;97.60
52731;DHT22;38624;53.242;6.974;2023-05-24T11:39:41;19.50;97.60
52731;DHT22;38624;53.242;6.974;2023-05-24T11:42:07;19.50;97.60
52731;DHT22;38624;53.242;6.974;2023-05-24T11:44:34;19.50;97.60
52731;DHT22;38624;53.242;6.974;2023-05-24T11:47:04;19.60;97.50
52731;DHT22;38624;53.242;6.974;2023-05-24T11:49:30;19.60;97.50
52731;DHT22;38624;53.242;6.974;2023-05-24T11:51:57;19.60;97.50
52731;DHT22;38624;53.242;6.974;2023-05-24T11:54:24;19.60;97.50
52731;DHT22;38624;53.242;6.974;2023-05-24T11:56:52;19.70;97.50
52731;DHT22;38624;53.242;6.974;2023-05-24T11:59:36;19.70;97.50
52731;DHT22;38624;53.242;6.974;2023-05-24T12:02:04;19.70;97.40
52731;DHT22;38624;53.242;6.974;2023-05-24T12:04:31;19.80;97.40
52731;DHT22;38624;53.242;6.974;2023-05-24T12:06:58;19.80;97.30
52731;DHT22;38624;53.242;6.974;2023-05-24T12:09:24;19.90;97.30
52731;DHT22;38624;53.242;6.974;2023-05-24T12:11:50;20.00;97.30
52731;DHT22;38624;53.242;6.974;2023-05-24T12:14:22;20.00;97.30
52731;DHT22;38624;53.242;6.974;2023-05-24T12:16:53;20.00;97.20
52731;DHT22;38624;53.242;6.974;2023-05-24T12:19:20;20.00;97.20
52731;DHT22;38624;53.242;6.974;2023-05-24T12:21:47;20.00;97.20
52731;DHT22;38624;53.242;6.974;2023-05-24T12:24:17;20.10;97.20
52731;DHT22;38624;53.242;6.974;2023-05-24T12:26:45;20.10;97.20
52731;DHT22;38624;53.242;6.974;2023-05-24T12:29:12;20.10;97.20
52731;DHT22;38624;53.242;6.974;2023-05-24T12:31:41;20.10;97.20
52731;DHT22;38624;53.242;6.974;2023-05-24T12:34:20;20.00;97.20
52731;DHT22;38624;53.242;6.974;2023-05-24T12:36:46;20.00;97.10
52731;DHT22;38624;53.242;6.974;2023-05-24T12:39:19;19.90;97.20
52731;DHT22;38624;53.242;6.974;2023-05-24T12:41:48;19.90;97.20
52731;DHT22;38624;53.242;6.974;2023-05-24T12:44:14;19.90;97.20
52731;DHT22;38624;53.242;6.974;2023-05-24T12:46:40;19.90;97.20
52731;DHT22;38624;53.242;6.974;2023-05-24T12:49:06;20.00;97.20
52731;DHT22;38624;53.242;6.974;2023-05-24T12:51:31;19.90;97.20
52731;DHT22;38624;53.242;6.974;2023-05-24T12:53:57;19.90;97.20
52731;DHT22;38624;53.242;6.974;2023-05-24T12:56:23;19.90;97.20
52731;DHT22;38624;53.242;6.974;2023-05-24T12:58:51;20.00;97.20
52731;DHT22;38624;53.242;6.974;2023-05-24T13:01:17;20.00;97.20
52731;DHT22;38624;53.242;6.974;2023-05-24T13:03:43;20.00;97.20
52731;DHT22;38624;53.242;6.974;2023-05-24T13:06:09;20.10;97.10
52731;DHT22;38624;53.242;6.974;2023-05-24T13:08:35;20.10;97.10
52731;DHT22;38624;53.242;6.974;2023-05-24T13:11:01;20.00;97.10
52731;DHT22;38624;53.242;6.974;2023-05-24T13:13:27;20.00;97.20
52731;DHT22;38624;53.242;6.974;2023-05-24T13:15:53;19.90;97.20
52731;DHT22;38624;53.242;6.974;2023-05-24T13:18:19;19.90;97.20
52731;DHT22;38624;53.242;6.974;2023-05-24T13:20:44;19.90;97.20
52731;DHT22;38624;53.242;6.974;2023-05-24T13:23:10;19.90;97.20
52731;DHT22;38624;53.242;6.974;2023-05-24T13:25:36;19.90;97.20
52731;DHT22;38624;53.242;6.974;2023-05-24T13:28:01;19.90;97.30
52731;DHT22;38624;53.242;6.974;2023-05-24T13:30:27;19.80;97.30
52731;DHT22;38624;53.242;6.974;2023-05-24T13:32:54;19.80;97.30
52731;DHT22;38624;53.242;6.974;2023-05-24T13:35:20;19.80;97.30
52731;DHT22;38624;53.242;6.974;2023-05-24T13:37:46;19.80;97.30
52731;DHT22;38624;53.242;6.974;2023-05-24T13:40:12;19.70;97.30
52731;DHT22;38624;53.242;6.974;2023-05-24T13:42:38;19.70;97.30
52731;DHT22;38624;53.242;6.974;2023-05-24T13:45:05;19.70;97.30
52731;DHT22;38624;53.242;6.974;2023-05-24T13:47:31;19.70;97.30
52731;DHT22;38624;53.242;6.974;2023-05-24T13:49:56;19.60;97.40
52731;DHT22;38624;53.242;6.974;2023-05-24T13:52:22;19.60;97.40
52731;DHT22;38624;53.242;6.974;2023-05-24T13:54:48;19.50;97.40
52731;DHT22;38624;53.242;6.974;2023-05-24T13:57:15;19.50;97.40
52731;DHT22;38624;53.242;6.974;2023-05-24T13:59:40;19.50;97.40
52731;DHT22;38624;53.242;6.974;2023-05-24T14:02:06;19.50;97.40
52731;DHT22;38624;53.242;6.974;2023-05-24T14:04:33;19.40;97.50
52731;DHT22;38624;53.242;6.974;2023-05-24T14:06:58;19.40;97.50
52731;DHT22;38624;53.242;6.974;2023-05-24T14:09:24;19.40;97.50
52731;DHT22;38624;53.242;6.974;2023-05-24T14:11:51;19.50;97.50
52731;DHT22;38624;53.242;6.974;2023-05-24T14:14:17;19.40;97.50
52731;DHT22;38624;53.242;6.974;2023-05-24T14:16:42;19.50;97.50
52731;DHT22;38624;53.242;6.974;2023-05-24T14:19:08;19.50;97.50
52731;DHT22;38624;53.242;6.974;2023-05-24T14:21:34;20.20;97.30
52731;DHT22;38624;53.242;6.974;2023-05-24T14:24:00;21.30;97.20
52731;DHT22;38624;53.242;6.974;2023-05-24T14:26:26;22.30;96.30
52731;DHT22;38624;53.242;6.974;2023-05-24T14:28:52;23.20;95.70
52731;DHT22;38624;53.242;6.974;2023-05-24T14:31:17;23.90;95.20
52731;DHT22;38624;53.242;6.974;2023-05-24T14:33:43;24.50;94.70
52731;DHT22;38624;53.242;6.974;2023-05-24T14:36:09;25.10;94.30
52731;DHT22;38624;53.242;6.974;2023-05-24T14:38:35;25.50;93.90
52731;DHT22;38624;53.242;6.974;2023-05-24T14:41:01;25.90;93.50
52731;DHT22;38624;53.242;6.974;2023-05-24T14:43:27;26.20;93.20
52731;DHT22;38624;53.242;6.974;2023-05-24T14:45:52;26.40;92.90
52731;DHT22;38624;53.242;6.974;2023-05-24T14:48:18;26.60;92.60
52731;DHT22;38624;53.242;6.974;2023-05-24T14:50:44;26.80;92.40
52731;DHT22;38624;53.242;6.974;2023-05-24T14:53:10;26.90;92.10
52731;DHT22;38624;53.242;6.974;2023-05-24T14:55:39;27.00;91.90
52731;DHT22;38624;53.242;6.974;2023-05-24T14:58:08;27.10;91.60
52731;DHT22;38624;53.242;6.974;2023-05-24T15:00:34;27.20;91.50
52731;DHT22;38624;53.242;6.974;2023-05-24T15:03:00;27.10;91.30
52731;DHT22;38624;53.242;6.974;2023-05-24T15:05:26;27.00;91.20
52731;DHT22;38624;53.242;6.974;2023-05-24T15:07:52;27.00;91.10
52731;DHT22;38624;53.242;6.974;2023-05-24T15:10:17;26.50;91.10
52731;DHT22;38624;53.242;6.974;2023-05-24T15:12:43;26.40;91.20
52731;DHT22;38624;53.242;6.974;2023-05-24T15:15:09;25.90;91.30
52731;DHT22;38624;53.242;6.974;2023-05-24T15:17:35;25.40;91.40
52731;DHT22;38624;53.242;6.974;2023-05-24T15:20:01;25.00;91.50
52731;DHT22;38624;53.242;6.974;2023-05-24T15:22:27;24.60;91.70
52731;DHT22;38624;53.242;6.974;2023-05-24T15:24:53;24.30;92.00
52731;DHT22;38624;53.242;6.974;2023-05-24T15:27:18;24.00;92.20
52731;DHT22;38624;53.242;6.974;2023-05-24T15:29:44;23.80;92.30
52731;DHT22;38624;53.242;6.974;2023-05-24T15:32:10;23.50;92.40
52731;DHT22;38624;53.242;6.974;2023-05-24T15:34:35;23.40;92.50
52731;DHT22;38624;53.242;6.974;2023-05-24T15:37:01;23.20;92.70
52731;DHT22;38624;53.242;6.974;2023-05-24T15:39:27;23.10;92.80
52731;DHT22;38624;53.242;6.974;2023-05-24T15:41:52;23.00;92.90
52731;DHT22;38624;53.242;6.974;2023-05-24T15:44:18;22.80;92.90